sensor_id;sensor_type;location;lat;lon;timestamp;P1;durP1;ratioP1;P2;durP2;ratioP2
75209;SDS011;63796;53.136;14.882;2024-03-02T00:00:27;68.70;;;34.90;;
75209;SDS011;63796;53.136;14.882;2024-03-02T00:03:14;69.60;;;33.20;;
75209;SDS011;63796;53.136;14.882;2024-03-02T00:05:42;65.80;;;33.10;;
75209;SDS011;63796;53.136;14.882;2024-03-02T00:08:09;70.30;;;33.90;;
75209;SDS011;63796;53.136;14.882;2024-03-02T00:10:39;69.50;;;34.40;;
75209;SDS011;63796;53.136;14.882;2024-03-02T00:13:08;65.90;;;32.90;;
75209;SDS011;63796;53.136;14.882;2024-03-02T00:15:53;65.10;;;33.30;;
75209;SDS011;63796;53.136;14.882;2024-03-02T00:18:30;67.00;;;31.80;;
75209;SDS011;63796;53.136;14.882;2024-03-02T00:20:58;64.50;;;31.50;;
75209;SDS011;63796;53.136;14.882;2024-03-02T00:23:30;57.40;;;29.80;;
75209;SDS011;63796;53.136;14.882;2024-03-02T00:26:00;63.40;;;31.10;;
75209;SDS011;63796;53.136;14.882;2024-03-02T00:28:29;58.00;;;31.40;;
75209;SDS011;63796;53.136;14.882;2024-03-02T00:33:30;67.30;;;34.90;;
75209;SDS011;63796;53.136;14.882;2024-03-02T00:35:58;68.30;;;32.80;;
75209;SDS011;63796;53.136;14.882;2024-03-02T00:38:27;65.50;;;34.20;;
75209;SDS011;63796;53.136;14.882;2024-03-02T00:40:54;59.90;;;32.10;;
75209;SDS011;63796;53.136;14.882;2024-03-02T00:43:43;60.50;;;30.60;;
75209;SDS011;63796;53.136;14.882;2024-03-02T00:46:20;58.40;;;29.90;;
75209;SDS011;63796;53.136;14.882;2024-03-02T00:48:57;55.20;;;29.90;;
75209;SDS011;63796;53.136;14.882;2024-03-02T00:51:27;57.40;;;29.70;;
75209;SDS011;63796;53.136;14.882;2024-03-02T00:53:55;53.90;;;28.40;;
75209;SDS011;63796;53.136;14.882;2024-03-02T00:56:24;62.90;;;30.00;;
75209;SDS011;63796;53.136;14.882;2024-03-02T00:58:52;61.50;;;29.70;;
75209;SDS011;63796;53.136;14.882;2024-03-02T01:01:19;62.70;;;29.80;;
75209;SDS011;63796;53.136;14.882;2024-03-02T01:03:46;51.40;;;27.40;;
75209;SDS011;63796;53.136;14.882;2024-03-02T01:06:14;56.40;;;27.30;;
75209;SDS011;63796;53.136;14.882;2024-03-02T01:08:41;52.50;;;26.40;;
75209;SDS011;63796;53.136;14.882;2024-03-02T01:11:08;46.30;;;24.80;;
75209;SDS011;63796;53.136;14.882;2024-03-02T01:13:35;47.60;;;23.20;;
75209;SDS011;63796;53.136;14.882;2024-03-02T01:16:02;43.30;;;21.90;;
75209;SDS011;63796;53.136;14.882;2024-03-02T01:18:30;39.70;;;21.40;;
75209;SDS011;63796;53.136;14.882;2024-03-02T01:20:57;36.80;;;19.60;;
75209;SDS011;63796;53.136;14.882;2024-03-02T01:23:25;34.90;;;18.40;;
75209;SDS011;63796;53.136;14.882;2024-03-02T01:25:51;37.70;;;19.00;;
75209;SDS011;63796;53.136;14.882;2024-03-02T01:28:19;39.50;;;18.70;;
75209;SDS011;63796;53.136;14.882;2024-03-02T01:30:47;38.90;;;19.00;;
75209;SDS011;63796;53.136;14.882;2024-03-02T01:33:16;34.30;;;17.90;;
75209;SDS011;63796;53.136;14.882;2024-03-02T01:35:43;31.70;;;17.70;;
75209;SDS011;63796;53.136;14.882;2024-03-02T01:38:10;33.10;;;17.80;;
75209;SDS011;63796;53.136;14.882;2024-03-02T01:40:37;38.30;;;18.30;;
75209;SDS011;63796;53.136;14.882;2024-03-02T01:43:05;33.50;;;17.40;;
75209;SDS011;63796;53.136;14.882;2024-03-02T01:45:32;31.40;;;16.90;;
75209;SDS011;63796;53.136;14.882;2024-03-02T01:47:59;34.70;;;17.30;;
75209;SDS011;63796;53.136;14.882;2024-03-02T01:50:31;33.10;;;16.50;;
75209;SDS011;63796;53.136;14.882;2024-03-02T01:52:59;31.00;;;16.60;;
75209;SDS011;63796;53.136;14.882;2024-03-02T01:55:26;30.50;;;16.50;;
75209;SDS011;63796;53.136;14.882;2024-03-02T01:57:55;29.90;;;17.00;;
75209;SDS011;63796;53.136;14.882;2024-03-02T02:00:22;32.80;;;16.00;;
75209;SDS011;63796;53.136;14.882;2024-03-02T02:02:51;32.40;;;16.00;;
75209;SDS011;63796;53.136;14.882;2024-03-02T02:05:18;32.40;;;16.00;;
75209;SDS011;63796;53.136;14.882;2024-03-02T02:07:45;31.80;;;15.70;;
75209;SDS011;63796;53.136;14.882;2024-03-02T02:10:18;33.40;;;15.60;;
75209;SDS011;63796;53.136;14.882;2024-03-02T02:13:12;35.00;;;15.80;;
75209;SDS011;63796;53.136;14.882;2024-03-02T02:16:09;26.70;;;15.10;;
75209;SDS011;63796;53.136;14.882;2024-03-02T02:19:02;31.60;;;16.20;;
75209;SDS011;63796;53.136;14.882;2024-03-02T02:21:55;34.50;;;16.90;;
75209;SDS011;63796;53.136;14.882;2024-03-02T02:24:28;30.40;;;15.40;;
75209;SDS011;63796;53.136;14.882;2024-03-02T02:27:20;29.90;;;15.40;;
75209;SDS011;63796;53.136;14.882;2024-03-02T02:30:18;29.00;;;15.40;;
75209;SDS011;63796;53.136;14.882;2024-03-02T02:32:52;28.00;;;16.20;;
75209;SDS011;63796;53.136;14.882;2024-03-02T02:35:40;32.60;;;16.30;;
75209;SDS011;63796;53.136;14.882;2024-03-02T02:38:35;31.70;;;16.80;;
75209;SDS011;63796;53.136;14.882;2024-03-02T02:41:10;32.50;;;17.20;;
75209;SDS011;63796;53.136;14.882;2024-03-02T02:44:03;36.10;;;17.30;;
75209;SDS011;63796;53.136;14.882;2024-03-02T02:46:58;33.50;;;17.60;;
75209;SDS011;63796;53.136;14.882;2024-03-02T02:49:31;33.50;;;17.70;;
75209;SDS011;63796;53.136;14.882;2024-03-02T02:52:24;33.30;;;18.70;;
75209;SDS011;63796;53.136;14.882;2024-03-02T02:55:19;34.60;;;18.40;;
75209;SDS011;63796;53.136;14.882;2024-03-02T02:58:12;34.30;;;19.00;;
75209;SDS011;63796;53.136;14.882;2024-03-02T03:01:05;37.10;;;18.90;;
75209;SDS011;63796;53.136;14.882;2024-03-02T03:04:19;34.10;;;18.90;;
75209;SDS011;63796;53.136;14.882;2024-03-02T03:08:33;38.20;;;19.10;;
75209;SDS011;63796;53.136;14.882;2024-03-02T03:13:01;39.30;;;20.50;;
75209;SDS011;63796;53.136;14.882;2024-03-02T03:17:22;41.00;;;19.80;;
75209;SDS011;63796;53.136;14.882;2024-03-02T03:21:50;40.90;;;20.40;;
75209;SDS011;63796;53.136;14.882;2024-03-02T03:26:18;38.20;;;20.50;;
75209;SDS011;63796;53.136;14.882;2024-03-02T03:30:46;46.60;;;22.50;;
75209;SDS011;63796;53.136;14.882;2024-03-02T03:35:18;42.10;;;22.40;;
75209;SDS011;63796;53.136;14.882;2024-03-02T03:39:46;41.40;;;21.90;;
75209;SDS011;63796;53.136;14.882;2024-03-02T03:44:14;43.70;;;21.70;;
75209;SDS011;63796;53.136;14.882;2024-03-02T03:48:21;43.90;;;21.90;;
75209;SDS011;63796;53.136;14.882;2024-03-02T03:52:49;48.00;;;22.90;;
75209;SDS011;63796;53.136;14.882;2024-03-02T03:57:17;45.90;;;23.10;;
75209;SDS011;63796;53.136;14.882;2024-03-02T04:01:45;53.30;;;25.20;;
75209;SDS011;63796;53.136;14.882;2024-03-02T04:06:13;46.60;;;24.90;;
75209;SDS011;63796;53.136;14.882;2024-03-02T04:10:41;45.80;;;23.80;;
75209;SDS011;63796;53.136;14.882;2024-03-02T04:14:55;50.90;;;25.80;;
75209;SDS011;63796;53.136;14.882;2024-03-02T04:19:16;52.30;;;27.20;;
75209;SDS011;63796;53.136;14.882;2024-03-02T04:23:30;52.60;;;26.30;;
75209;SDS011;63796;53.136;14.882;2024-03-02T04:27:58;54.50;;;27.60;;
75209;SDS011;63796;53.136;14.882;2024-03-02T04:32:26;53.40;;;27.00;;
75209;SDS011;63796;53.136;14.882;2024-03-02T04:36:55;55.50;;;26.70;;
75209;SDS011;63796;53.136;14.882;2024-03-02T04:41:03;59.20;;;28.50;;
75209;SDS011;63796;53.136;14.882;2024-03-02T04:45:30;60.60;;;27.90;;
75209;SDS011;63796;53.136;14.882;2024-03-02T04:49:58;59.10;;;29.30;;
75209;SDS011;63796;53.136;14.882;2024-03-02T04:54:26;58.50;;;28.70;;
75209;SDS011;63796;53.136;14.882;2024-03-02T04:58:53;55.10;;;27.50;;
75209;SDS011;63796;53.136;14.882;2024-03-02T05:03:14;61.10;;;27.90;;
75209;SDS011;63796;53.136;14.882;2024-03-02T05:07:42;61.00;;;30.50;;
75209;SDS011;63796;53.136;14.882;2024-03-02T05:12:10;61.50;;;29.20;;
75209;SDS011;63796;53.136;14.882;2024-03-02T05:16:24;60.60;;;30.30;;
75209;SDS011;63796;53.136;14.882;2024-03-02T05:20:52;58.60;;;29.60;;
75209;SDS011;63796;53.136;14.882;2024-03-02T05:25:20;60.40;;;29.40;;
75209;SDS011;63796;53.136;14.882;2024-03-02T05:29:41;61.60;;;29.90;;
75209;SDS011;63796;53.136;14.882;2024-03-02T05:34:09;65.80;;;29.90;;
75209;SDS011;63796;53.136;14.882;2024-03-02T05:38:37;62.80;;;30.90;;
75209;SDS011;63796;53.136;14.882;2024-03-02T05:42:45;60.20;;;30.70;;
75209;SDS011;63796;53.136;14.882;2024-03-02T05:47:12;61.90;;;30.50;;
75209;SDS011;63796;53.136;14.882;2024-03-02T05:51:40;64.00;;;30.60;;
75209;SDS011;63796;53.136;14.882;2024-03-02T05:55:55;68.00;;;32.70;;
75209;SDS011;63796;53.136;14.882;2024-03-02T06:00:22;62.30;;;30.50;;
75209;SDS011;63796;53.136;14.882;2024-03-02T06:04:50;58.60;;;28.80;;
75209;SDS011;63796;53.136;14.882;2024-03-02T06:09:11;60.50;;;29.90;;
75209;SDS011;63796;53.136;14.882;2024-03-02T06:13:39;66.90;;;31.90;;
75209;SDS011;63796;53.136;14.882;2024-03-02T06:18:07;68.00;;;33.40;;
75209;SDS011;63796;53.136;14.882;2024-03-02T06:22:35;62.00;;;30.80;;
75209;SDS011;63796;53.136;14.882;2024-03-02T06:27:03;63.60;;;31.20;;
75209;SDS011;63796;53.136;14.882;2024-03-02T06:31:31;60.20;;;30.20;;
75209;SDS011;63796;53.136;14.882;2024-03-02T06:35:59;67.90;;;32.20;;
75209;SDS011;63796;53.136;14.882;2024-03-02T06:40:27;69.60;;;32.40;;
75209;SDS011;63796;53.136;14.882;2024-03-02T06:44:59;66.60;;;32.10;;
75209;SDS011;63796;53.136;14.882;2024-03-02T06:49:06;66.80;;;33.00;;
75209;SDS011;63796;53.136;14.882;2024-03-02T06:53:33;65.60;;;34.00;;
75209;SDS011;63796;53.136;14.882;2024-03-02T06:58:01;64.60;;;32.60;;
75209;SDS011;63796;53.136;14.882;2024-03-02T07:02:22;70.00;;;33.80;;
75209;SDS011;63796;53.136;14.882;2024-03-02T07:06:51;67.90;;;33.30;;
75209;SDS011;63796;53.136;14.882;2024-03-02T07:11:18;71.60;;;33.50;;
75209;SDS011;63796;53.136;14.882;2024-03-02T07:15:46;70.60;;;34.00;;
75209;SDS011;63796;53.136;14.882;2024-03-02T07:20:30;74.60;;;33.60;;
75209;SDS011;63796;53.136;14.882;2024-03-02T07:25:01;71.70;;;34.40;;
75209;SDS011;63796;53.136;14.882;2024-03-02T07:29:18;70.60;;;33.80;;
75209;SDS011;63796;53.136;14.882;2024-03-02T07:33:39;73.10;;;32.80;;
75209;SDS011;63796;53.136;14.882;2024-03-02T07:38:00;65.30;;;31.60;;
75209;SDS011;63796;53.136;14.882;2024-03-02T07:42:28;67.60;;;32.40;;
75209;SDS011;63796;53.136;14.882;2024-03-02T07:46:56;69.30;;;33.60;;
75209;SDS011;63796;53.136;14.882;2024-03-02T07:51:24;67.70;;;32.40;;
75209;SDS011;63796;53.136;14.882;2024-03-02T07:55:52;71.50;;;34.60;;
75209;SDS011;63796;53.136;14.882;2024-03-02T08:00:20;68.60;;;32.70;;
75209;SDS011;63796;53.136;14.882;2024-03-02T08:04:48;65.10;;;34.00;;
75209;SDS011;63796;53.136;14.882;2024-03-02T08:09:16;68.10;;;33.10;;
75209;SDS011;63796;53.136;14.882;2024-03-02T08:13:44;65.90;;;31.70;;
75209;SDS011;63796;53.136;14.882;2024-03-02T08:18:12;62.00;;;31.40;;
75209;SDS011;63796;53.136;14.882;2024-03-02T08:22:40;63.80;;;32.50;;
75209;SDS011;63796;53.136;14.882;2024-03-02T08:27:08;62.60;;;32.30;;
75209;SDS011;63796;53.136;14.882;2024-03-02T08:31:36;61.60;;;32.50;;
75209;SDS011;63796;53.136;14.882;2024-03-02T08:36:04;58.00;;;30.80;;
75209;SDS011;63796;53.136;14.882;2024-03-02T08:40:32;55.70;;;30.50;;
75209;SDS011;63796;53.136;14.882;2024-03-02T08:45:00;62.20;;;31.10;;
75209;SDS011;63796;53.136;14.882;2024-03-02T08:49:21;57.80;;;31.00;;
75209;SDS011;63796;53.136;14.882;2024-03-02T08:53:49;58.30;;;30.90;;
75209;SDS011;63796;53.136;14.882;2024-03-02T08:58:17;60.20;;;30.40;;
75209;SDS011;63796;53.136;14.882;2024-03-02T09:02:24;56.50;;;29.60;;
75209;SDS011;63796;53.136;14.882;2024-03-02T09:06:52;55.20;;;28.80;;
75209;SDS011;63796;53.136;14.882;2024-03-02T09:11:20;55.20;;;28.50;;
75209;SDS011;63796;53.136;14.882;2024-03-02T09:15:48;54.60;;;27.10;;
75209;SDS011;63796;53.136;14.882;2024-03-02T09:20:16;54.20;;;28.20;;
75209;SDS011;63796;53.136;14.882;2024-03-02T09:24:37;50.30;;;25.20;;
75209;SDS011;63796;53.136;14.882;2024-03-02T09:29:12;57.20;;;27.90;;
75209;SDS011;63796;53.136;14.882;2024-03-02T09:33:40;53.10;;;27.10;;
75209;SDS011;63796;53.136;14.882;2024-03-02T09:38:08;58.20;;;27.00;;
75209;SDS011;63796;53.136;14.882;2024-03-02T09:42:36;54.30;;;26.10;;
75209;SDS011;63796;53.136;14.882;2024-03-02T09:46:51;50.10;;;26.70;;
75209;SDS011;63796;53.136;14.882;2024-03-02T09:51:11;52.20;;;27.40;;
75209;SDS011;63796;53.136;14.882;2024-03-02T09:55:33;54.50;;;28.00;;
75209;SDS011;63796;53.136;14.882;2024-03-02T10:00:01;51.60;;;26.70;;
75209;SDS011;63796;53.136;14.882;2024-03-02T10:04:30;53.50;;;25.60;;
75209;SDS011;63796;53.136;14.882;2024-03-02T10:09:03;52.10;;;26.50;;
75209;SDS011;63796;53.136;14.882;2024-03-02T10:13:31;54.00;;;26.60;;
75209;SDS011;63796;53.136;14.882;2024-03-02T10:17:52;48.20;;;24.40;;
75209;SDS011;63796;53.136;14.882;2024-03-02T10:22:00;56.20;;;26.40;;
75209;SDS011;63796;53.136;14.882;2024-03-02T10:26:36;55.70;;;26.50;;
75209;SDS011;63796;53.136;14.882;2024-03-02T10:31:03;50.30;;;25.30;;
75209;SDS011;63796;53.136;14.882;2024-03-02T10:35:32;58.00;;;26.70;;
75209;SDS011;63796;53.136;14.882;2024-03-02T10:39:46;56.90;;;26.90;;
75209;SDS011;63796;53.136;14.882;2024-03-02T10:44:13;53.10;;;26.60;;
75209;SDS011;63796;53.136;14.882;2024-03-02T10:48:21;53.40;;;26.50;;
75209;SDS011;63796;53.136;14.882;2024-03-02T10:52:41;53.90;;;26.30;;
75209;SDS011;63796;53.136;14.882;2024-03-02T10:56:58;60.20;;;27.20;;
75209;SDS011;63796;53.136;14.882;2024-03-02T11:01:25;54.60;;;25.90;;
75209;SDS011;63796;53.136;14.882;2024-03-02T11:05:53;53.60;;;26.20;;
75209;SDS011;63796;53.136;14.882;2024-03-02T11:10:21;54.50;;;26.10;;
75209;SDS011;63796;53.136;14.882;2024-03-02T11:14:50;52.40;;;26.90;;
75209;SDS011;63796;53.136;14.882;2024-03-02T11:19:17;51.10;;;25.80;;
75209;SDS011;63796;53.136;14.882;2024-03-02T11:23:51;52.00;;;25.50;;
75209;SDS011;63796;53.136;14.882;2024-03-02T11:28:19;58.20;;;26.60;;
75209;SDS011;63796;53.136;14.882;2024-03-02T11:32:54;49.50;;;24.00;;
75209;SDS011;63796;53.136;14.882;2024-03-02T11:37:16;51.80;;;25.50;;
75209;SDS011;63796;53.136;14.882;2024-03-02T11:41:43;48.80;;;24.30;;
75209;SDS011;63796;53.136;14.882;2024-03-02T11:46:11;50.90;;;25.00;;
75209;SDS011;63796;53.136;14.882;2024-03-02T11:50:42;48.00;;;24.50;;
75209;SDS011;63796;53.136;14.882;2024-03-02T11:55:10;56.00;;;23.80;;
75209;SDS011;63796;53.136;14.882;2024-03-02T11:59:38;51.20;;;25.20;;
75209;SDS011;63796;53.136;14.882;2024-03-02T12:04:06;49.10;;;23.90;;
75209;SDS011;63796;53.136;14.882;2024-03-02T12:08:34;51.30;;;23.40;;
75209;SDS011;63796;53.136;14.882;2024-03-02T12:13:03;50.50;;;25.30;;
75209;SDS011;63796;53.136;14.882;2024-03-02T12:17:09;54.20;;;24.80;;
75209;SDS011;63796;53.136;14.882;2024-03-02T12:21:37;52.70;;;23.10;;
75209;SDS011;63796;53.136;14.882;2024-03-02T12:26:05;44.70;;;22.40;;
75209;SDS011;63796;53.136;14.882;2024-03-02T12:30:34;43.70;;;23.00;;
75209;SDS011;63796;53.136;14.882;2024-03-02T12:35:01;44.40;;;21.80;;
75209;SDS011;63796;53.136;14.882;2024-03-02T12:39:16;36.40;;;20.70;;
75209;SDS011;63796;53.136;14.882;2024-03-02T12:43:43;37.30;;;18.80;;
75209;SDS011;63796;53.136;14.882;2024-03-02T12:48:11;39.90;;;20.70;;
75209;SDS011;63796;53.136;14.882;2024-03-02T12:52:39;39.00;;;19.50;;
75209;SDS011;63796;53.136;14.882;2024-03-02T12:57:07;41.10;;;20.80;;
75209;SDS011;63796;53.136;14.882;2024-03-02T13:01:35;39.70;;;21.10;;
75209;SDS011;63796;53.136;14.882;2024-03-02T13:06:03;36.80;;;20.30;;
75209;SDS011;63796;53.136;14.882;2024-03-02T13:10:31;42.20;;;21.00;;
75209;SDS011;63796;53.136;14.882;2024-03-02T13:14:59;40.90;;;21.20;;
75209;SDS011;63796;53.136;14.882;2024-03-02T13:19:33;40.20;;;21.20;;
75209;SDS011;63796;53.136;14.882;2024-03-02T13:24:02;42.80;;;21.00;;
75209;SDS011;63796;53.136;14.882;2024-03-02T13:28:30;39.00;;;20.40;;
75209;SDS011;63796;53.136;14.882;2024-03-02T13:32:58;42.50;;;21.10;;
75209;SDS011;63796;53.136;14.882;2024-03-02T13:37:26;41.90;;;21.00;;
75209;SDS011;63796;53.136;14.882;2024-03-02T13:41:40;43.00;;;21.20;;
75209;SDS011;63796;53.136;14.882;2024-03-02T13:46:08;38.70;;;19.80;;
75209;SDS011;63796;53.136;14.882;2024-03-02T13:50:36;37.80;;;20.20;;
75209;SDS011;63796;53.136;14.882;2024-03-02T13:55:04;44.50;;;21.80;;
75209;SDS011;63796;53.136;14.882;2024-03-02T13:59:32;42.30;;;21.00;;
75209;SDS011;63796;53.136;14.882;2024-03-02T14:04:00;42.10;;;20.20;;
75209;SDS011;63796;53.136;14.882;2024-03-02T14:08:28;38.90;;;20.40;;
75209;SDS011;63796;53.136;14.882;2024-03-02T14:12:56;41.30;;;20.70;;
75209;SDS011;63796;53.136;14.882;2024-03-02T14:17:25;41.80;;;22.40;;
75209;SDS011;63796;53.136;14.882;2024-03-02T14:21:52;53.40;;;25.90;;
75209;SDS011;63796;53.136;14.882;2024-03-02T14:26:20;40.90;;;22.90;;
75209;SDS011;63796;53.136;14.882;2024-03-02T14:30:55;44.30;;;23.00;;
75209;SDS011;63796;53.136;14.882;2024-03-02T14:35:23;45.90;;;23.00;;
75209;SDS011;63796;53.136;14.882;2024-03-02T14:39:51;48.30;;;24.60;;
75209;SDS011;63796;53.136;14.882;2024-03-02T14:44:19;46.20;;;23.30;;
75209;SDS011;63796;53.136;14.882;2024-03-02T14:48:47;50.90;;;24.90;;
75209;SDS011;63796;53.136;14.882;2024-03-02T14:53:15;53.80;;;26.60;;
75209;SDS011;63796;53.136;14.882;2024-03-02T14:57:43;57.60;;;27.40;;
75209;SDS011;63796;53.136;14.882;2024-03-02T15:02:11;61.20;;;30.60;;
75209;SDS011;63796;53.136;14.882;2024-03-02T15:06:39;59.00;;;29.20;;
75209;SDS011;63796;53.136;14.882;2024-03-02T15:11:07;58.50;;;30.60;;
75209;SDS011;63796;53.136;14.882;2024-03-02T15:15:35;55.20;;;28.00;;
75209;SDS011;63796;53.136;14.882;2024-03-02T15:20:03;56.10;;;28.80;;
75209;SDS011;63796;53.136;14.882;2024-03-02T15:24:31;71.50;;;32.30;;
75209;SDS011;63796;53.136;14.882;2024-03-02T15:28:59;70.10;;;34.20;;
75209;SDS011;63796;53.136;14.882;2024-03-02T15:33:27;66.90;;;32.80;;
75209;SDS011;63796;53.136;14.882;2024-03-02T15:37:55;78.40;;;35.40;;
75209;SDS011;63796;53.136;14.882;2024-03-02T15:42:23;72.80;;;34.90;;
75209;SDS011;63796;53.136;14.882;2024-03-02T15:46:51;55.40;;;28.60;;
75209;SDS011;63796;53.136;14.882;2024-03-02T15:51:06;60.80;;;29.00;;
75209;SDS011;63796;53.136;14.882;2024-03-02T15:55:29;58.90;;;28.10;;
75209;SDS011;63796;53.136;14.882;2024-03-02T15:59:44;64.30;;;29.20;;
75209;SDS011;63796;53.136;14.882;2024-03-02T16:04:04;57.90;;;28.60;;
75209;SDS011;63796;53.136;14.882;2024-03-02T16:08:26;52.70;;;27.40;;
75209;SDS011;63796;53.136;14.882;2024-03-02T16:12:53;56.40;;;28.10;;
75209;SDS011;63796;53.136;14.882;2024-03-02T16:17:22;57.40;;;28.10;;
75209;SDS011;63796;53.136;14.882;2024-03-02T16:21:49;57.10;;;26.50;;
75209;SDS011;63796;53.136;14.882;2024-03-02T16:26:11;58.80;;;28.00;;
75209;SDS011;63796;53.136;14.882;2024-03-02T16:30:18;54.70;;;25.80;;
75209;SDS011;63796;53.136;14.882;2024-03-02T16:34:46;58.50;;;26.90;;
75209;SDS011;63796;53.136;14.882;2024-03-02T16:38:53;53.00;;;26.60;;
75209;SDS011;63796;53.136;14.882;2024-03-02T16:43:21;58.10;;;27.70;;
75209;SDS011;63796;53.136;14.882;2024-03-02T16:47:49;57.10;;;27.00;;
75209;SDS011;63796;53.136;14.882;2024-03-02T16:52:10;56.40;;;25.40;;
75209;SDS011;63796;53.136;14.882;2024-03-02T16:56:40;53.80;;;26.70;;
75209;SDS011;63796;53.136;14.882;2024-03-02T17:00:59;49.90;;;25.30;;
75209;SDS011;63796;53.136;14.882;2024-03-02T17:05:06;54.00;;;25.80;;
75209;SDS011;63796;53.136;14.882;2024-03-02T17:09:34;54.20;;;26.50;;
75209;SDS011;63796;53.136;14.882;2024-03-02T17:14:02;56.60;;;27.10;;
75209;SDS011;63796;53.136;14.882;2024-03-02T17:18:30;53.40;;;25.50;;
75209;SDS011;63796;53.136;14.882;2024-03-02T17:22:58;56.20;;;28.20;;
75209;SDS011;63796;53.136;14.882;2024-03-02T17:27:26;58.90;;;28.80;;
75209;SDS011;63796;53.136;14.882;2024-03-02T17:31:54;89.00;;;34.50;;
75209;SDS011;63796;53.136;14.882;2024-03-02T17:36:22;79.60;;;32.30;;
75209;SDS011;63796;53.136;14.882;2024-03-02T17:40:50;64.70;;;29.30;;
75209;SDS011;63796;53.136;14.882;2024-03-02T17:45:18;58.40;;;29.20;;
75209;SDS011;63796;53.136;14.882;2024-03-02T17:49:46;63.00;;;29.50;;
75209;SDS011;63796;53.136;14.882;2024-03-02T17:54:15;61.40;;;28.90;;
75209;SDS011;63796;53.136;14.882;2024-03-02T17:58:43;60.40;;;28.80;;
75209;SDS011;63796;53.136;14.882;2024-03-02T18:03:11;59.10;;;28.30;;
75209;SDS011;63796;53.136;14.882;2024-03-02T18:07:32;59.70;;;29.60;;
75209;SDS011;63796;53.136;14.882;2024-03-02T18:12:00;59.50;;;28.50;;
75209;SDS011;63796;53.136;14.882;2024-03-02T18:16:28;61.10;;;31.00;;
75209;SDS011;63796;53.136;14.882;2024-03-02T18:20:56;76.60;;;35.60;;
75209;SDS011;63796;53.136;14.882;2024-03-02T18:25:24;71.80;;;35.40;;
75209;SDS011;63796;53.136;14.882;2024-03-02T18:29:52;71.00;;;34.00;;
75209;SDS011;63796;53.136;14.882;2024-03-02T18:34:20;71.90;;;35.40;;
75209;SDS011;63796;53.136;14.882;2024-03-02T18:38:48;71.80;;;34.60;;
75209;SDS011;63796;53.136;14.882;2024-03-02T18:43:16;79.60;;;37.10;;
75209;SDS011;63796;53.136;14.882;2024-03-02T18:47:44;85.60;;;40.60;;
75209;SDS011;63796;53.136;14.882;2024-03-02T18:52:12;72.80;;;36.20;;
75209;SDS011;63796;53.136;14.882;2024-03-02T18:56:20;77.50;;;37.40;;
75209;SDS011;63796;53.136;14.882;2024-03-02T19:00:47;85.30;;;42.20;;
75209;SDS011;63796;53.136;14.882;2024-03-02T19:04:55;77.00;;;38.80;;
75209;SDS011;63796;53.136;14.882;2024-03-02T19:09:22;84.20;;;38.60;;
75209;SDS011;63796;53.136;14.882;2024-03-02T19:13:50;81.20;;;38.10;;
75209;SDS011;63796;53.136;14.882;2024-03-02T19:18:18;72.90;;;37.00;;
75209;SDS011;63796;53.136;14.882;2024-03-02T19:22:46;74.10;;;36.90;;
75209;SDS011;63796;53.136;14.882;2024-03-02T19:27:14;76.90;;;35.80;;
75209;SDS011;63796;53.136;14.882;2024-03-02T19:31:42;77.60;;;37.70;;
75209;SDS011;63796;53.136;14.882;2024-03-02T19:36:10;74.70;;;37.50;;
75209;SDS011;63796;53.136;14.882;2024-03-02T19:40:41;73.70;;;37.80;;
75209;SDS011;63796;53.136;14.882;2024-03-02T19:45:00;73.50;;;36.70;;
75209;SDS011;63796;53.136;14.882;2024-03-02T19:49:00;67.40;;;34.30;;
75209;SDS011;63796;53.136;14.882;2024-03-02T19:53:01;81.00;;;36.60;;
75209;SDS011;63796;53.136;14.882;2024-03-02T19:57:02;67.90;;;33.00;;
75209;SDS011;63796;53.136;14.882;2024-03-02T20:01:03;65.90;;;32.80;;
75209;SDS011;63796;53.136;14.882;2024-03-02T20:05:04;58.90;;;31.00;;
75209;SDS011;63796;53.136;14.882;2024-03-02T20:09:05;60.50;;;30.10;;
75209;SDS011;63796;53.136;14.882;2024-03-02T20:13:05;62.00;;;33.40;;
75209;SDS011;63796;53.136;14.882;2024-03-02T20:17:06;62.10;;;31.30;;
75209;SDS011;63796;53.136;14.882;2024-03-02T20:21:07;61.70;;;29.90;;
75209;SDS011;63796;53.136;14.882;2024-03-02T20:25:08;59.60;;;29.40;;
75209;SDS011;63796;53.136;14.882;2024-03-02T20:29:09;53.40;;;28.40;;
75209;SDS011;63796;53.136;14.882;2024-03-02T20:33:10;59.80;;;28.30;;
75209;SDS011;63796;53.136;14.882;2024-03-02T20:37:10;57.30;;;28.20;;
75209;SDS011;63796;53.136;14.882;2024-03-02T20:41:14;51.10;;;26.20;;
75209;SDS011;63796;53.136;14.882;2024-03-02T20:45:15;51.30;;;26.40;;
75209;SDS011;63796;53.136;14.882;2024-03-02T20:49:16;49.30;;;25.20;;
75209;SDS011;63796;53.136;14.882;2024-03-02T20:53:16;50.10;;;27.00;;
75209;SDS011;63796;53.136;14.882;2024-03-02T20:57:24;54.50;;;25.40;;
75209;SDS011;63796;53.136;14.882;2024-03-02T21:01:31;52.80;;;27.80;;
75209;SDS011;63796;53.136;14.882;2024-03-02T21:05:59;57.80;;;26.40;;
75209;SDS011;63796;53.136;14.882;2024-03-02T21:10:27;52.90;;;25.80;;
75209;SDS011;63796;53.136;14.882;2024-03-02T21:14:48;46.10;;;24.50;;
75209;SDS011;63796;53.136;14.882;2024-03-02T21:19:16;53.40;;;25.90;;
75209;SDS011;63796;53.136;14.882;2024-03-02T21:23:44;49.90;;;24.70;;
75209;SDS011;63796;53.136;14.882;2024-03-02T21:28:14;45.00;;;25.10;;
75209;SDS011;63796;53.136;14.882;2024-03-02T21:32:42;45.60;;;24.00;;
75209;SDS011;63796;53.136;14.882;2024-03-02T21:37:10;52.40;;;25.60;;
75209;SDS011;63796;53.136;14.882;2024-03-02T21:41:38;49.90;;;24.30;;
75209;SDS011;63796;53.136;14.882;2024-03-02T21:46:06;52.60;;;26.20;;
75209;SDS011;63796;53.136;14.882;2024-03-02T21:50:34;48.60;;;26.00;;
75209;SDS011;63796;53.136;14.882;2024-03-02T21:55:02;52.00;;;25.90;;
75209;SDS011;63796;53.136;14.882;2024-03-02T21:59:30;53.80;;;26.00;;
75209;SDS011;63796;53.136;14.882;2024-03-02T22:03:37;51.30;;;25.70;;
75209;SDS011;63796;53.136;14.882;2024-03-02T22:07:58;53.10;;;26.50;;
75209;SDS011;63796;53.136;14.882;2024-03-02T22:12:19;59.70;;;26.80;;
75209;SDS011;63796;53.136;14.882;2024-03-02T22:16:47;53.00;;;26.30;;
75209;SDS011;63796;53.136;14.882;2024-03-02T22:21:15;58.50;;;27.90;;
75209;SDS011;63796;53.136;14.882;2024-03-02T22:25:43;50.90;;;26.60;;
75209;SDS011;63796;53.136;14.882;2024-03-02T22:30:11;55.20;;;26.60;;
75209;SDS011;63796;53.136;14.882;2024-03-02T22:34:18;57.20;;;28.40;;
75209;SDS011;63796;53.136;14.882;2024-03-02T22:38:46;56.90;;;28.10;;
75209;SDS011;63796;53.136;14.882;2024-03-02T22:43:14;60.80;;;28.80;;
75209;SDS011;63796;53.136;14.882;2024-03-02T22:47:42;51.90;;;26.90;;
75209;SDS011;63796;53.136;14.882;2024-03-02T22:52:03;61.40;;;28.00;;
75209;SDS011;63796;53.136;14.882;2024-03-02T22:56:17;64.50;;;28.50;;
75209;SDS011;63796;53.136;14.882;2024-03-02T23:03:39;56.50;;;27.30;;
75209;SDS011;63796;53.136;14.882;2024-03-02T23:06:07;61.00;;;30.00;;
75209;SDS011;63796;53.136;14.882;2024-03-02T23:08:34;60.30;;;29.30;;
75209;SDS011;63796;53.136;14.882;2024-03-02T23:11:03;56.00;;;28.70;;